Flight Track Log - Related Links

Times and Time Zones

All times are in EDT time to prevent confusion due to time zone crossing. See the SWA559 flight status page for this flight to view local times or setup timezone preferences in your user account.

Time Position Orientation Groundspeed Altitude Reporting Facility
EDT Latitude Longitude Course Direction KTS MPH feet Rate Location/Type
Sat 01:47:49 PM 33.9500 -118.4667 59° Northeast 181 208 1,300  Level Southern California TRACON
Sat 01:48:49 PM 33.9333 -118.5333 253° West 234 269 3,700 2,463 Climbing Southern California TRACON
Sat 01:50:03 PM 33.8844 -118.5614 205° Southwest 260 299 6,800 2,868 Climbing Los Angeles Center
Sat 01:51:05 PM 33.9050 -118.4822 73° East 247 284 10,200 2,710 Climbing Los Angeles Center
Sat 01:52:07 PM 33.9486 -118.4064 55° Northeast 269 310 12,400 1,839 Climbing Los Angeles Center
Sat 01:53:00 PM 34.2689 -117.8289 59° Northeast  Level FlightAware Approximate
Sat 01:53:09 PM 33.9969 -118.3203 56° Northeast 302 348 14,000  Level Los Angeles Center
Sat 01:54:12 PM 34.0567 -118.2139 56° Northeast 376 433 15,400 1,680 Climbing Los Angeles Center
Sat 01:55:14 PM 34.1175 -118.1083 55° Northeast 382 440 17,500 2,032 Climbing Los Angeles Center
Sat 01:56:16 PM 34.1800 -117.9958 56° Northeast 398 458 19,600 1,984 Climbing Los Angeles Center
Sat 01:57:18 PM 34.2450 -117.8814 55° Northeast 410 472 21,600 1,935 Climbing Los Angeles Center
Sat 01:58:20 PM 34.3214 -117.7431 56° Northeast 413 475 23,600 1,645 Climbing Los Angeles Center
Sat 01:59:22 PM 34.3878 -117.6253 56° Northeast 421 484 25,000 1,694 Climbing Los Angeles Center
Sat 02:00:24 PM 34.4597 -117.5094 53° Northeast 421 484 27,100 2,081 Climbing Los Angeles Center
Sat 02:01:26 PM 34.5325 -117.4089 49° Northeast 404 465 29,300 1,790 Climbing Los Angeles Center
Sat 02:02:28 PM 34.6025 -117.3078 50° Northeast 396 456 30,800 1,500 Climbing Los Angeles Center
Sat 02:03:30 PM 34.6719 -117.2089 49° Northeast 390 449 32,400 1,548 Climbing Los Angeles Center
Sat 02:04:32 PM 34.7419 -117.1114 49° Northeast 387 445 34,000 1,258 Climbing Los Angeles Center
Sat 02:05:34 PM 34.8217 -116.9967 50° Northeast 378 435 35,000 532 Climbing Los Angeles Center
Sat 02:06:36 PM 34.8883 -116.9028 49° Northeast 371 427 35,100 629 Climbing Los Angeles Center
Sat 02:07:38 PM 34.9542 -116.8075 50° Northeast 370 426 36,300 919 Climbing Los Angeles Center
Sat 02:08:40 PM 35.0200 -116.7136 49° Northeast 367 422 37,000 339 Climbing Los Angeles Center
Sat 02:09:42 PM 35.0850 -116.6194 50° Northeast 366 421 37,000  Level Los Angeles Center
Sat 02:10:44 PM 35.1628 -116.5064 50° Northeast 364 419 37,000  Level Los Angeles Center
Sat 02:11:46 PM 35.2294 -116.4139 49° Northeast 364 419 37,000  Level Los Angeles Center
Sat 02:12:49 PM 35.2950 -116.3181 50° Northeast 367 422 37,000  Level Los Angeles Center
Sat 02:13:51 PM 35.3594 -116.2236 50° Northeast 363 418 37,000  Level Los Angeles Center
Sat 02:14:53 PM 35.4219 -116.1289 51° Northeast 361 415 37,000  Level Los Angeles Center
Sat 02:15:55 PM 35.4897 -116.0350 48° Northeast 365 420 37,000  Level Los Angeles Center
Sat 02:16:57 PM 35.5658 -115.9225 50° Northeast 361 415 37,000  Level Los Angeles Center
Sat 02:17:59 PM 35.6292 -115.8311 50° Northeast 356 410 37,000  Level Los Angeles Center
Sat 02:19:01 PM 35.6939 -115.7372 50° Northeast 357 411 37,000  Level Los Angeles Center
Sat 02:20:03 PM 35.7578 -115.6403 51° Northeast 362 417 37,000  Level Los Angeles Center
Sat 02:21:05 PM 35.8361 -115.5250 50° Northeast 366 421 37,000  Level Los Angeles Center
Sat 02:22:07 PM 35.9008 -115.4278 51° Northeast 368 423 37,000  Level Los Angeles Center
Sat 02:23:09 PM 35.9661 -115.3306 50° Northeast 367 422 37,000  Level Los Angeles Center
Sat 02:24:11 PM 36.0300 -115.2350 50° Northeast 362 417 37,000  Level Los Angeles Center
Sat 02:25:13 PM 36.0883 -115.1300 55° Northeast 372 428 37,000  Level Los Angeles Center
Sat 02:26:15 PM 36.1331 -114.9847 69° East 378 435 37,000  Level Los Angeles Center
Sat 02:27:17 PM 36.1694 -114.8633 70° East 377 434 37,000  Level Los Angeles Center
Sat 02:28:19 PM 36.2069 -114.7431 69° East 376 433 37,000  Level Los Angeles Center
Sat 02:29:21 PM 36.2439 -114.6225 69° East 376 433 37,000  Level Los Angeles Center
Sat 02:30:24 PM 36.2811 -114.5017 69° East 376 433 37,000  Level Los Angeles Center
Sat 02:31:26 PM 36.3181 -114.3783 70° East 380 437 37,000  Level Los Angeles Center
Sat 02:32:28 PM 36.3628 -114.2303 69° East 382 440 37,000  Level Los Angeles Center
Sat 02:33:30 PM 36.3992 -114.1069 70° East 382 440 37,000  Level Los Angeles Center
Sat 02:34:32 PM 36.4361 -113.9844 69° East 381 438 37,000  Level Los Angeles Center
Sat 02:35:34 PM 36.4725 -113.8611 70° East 381 438 37,000  Level Los Angeles Center
Sat 02:36:36 PM 36.5136 -113.7203 70° East 383 441 37,000  Level Los Angeles Center
Sat 02:37:38 PM 36.5500 -113.5981 70° East 381 438 37,000  Level Los Angeles Center
Sat 02:38:40 PM 36.5869 -113.4739 70° East 383 441 37,000  Level Los Angeles Center
Sat 02:39:42 PM 36.6231 -113.3503 70° East 382 440 37,000  Level Los Angeles Center
Sat 02:40:44 PM 36.6594 -113.2239 70° East 387 445 37,000  Level Los Angeles Center
Sat 02:41:46 PM 36.7033 -113.0733 70° East 388 447 37,000  Level Los Angeles Center
Sat 02:42:48 PM 36.7403 -112.9464 70° East 390 449 37,000  Level Los Angeles Center
Sat 02:43:51 PM 36.7769 -112.8183 70° East 394 453 37,000  Level Los Angeles Center
Sat 02:44:53 PM 36.8128 -112.6903 71° East 394 453 37,000  Level Los Angeles Center
Sat 02:45:55 PM 36.8492 -112.5622 70° East 394 453 37,000  Level Los Angeles Center
Sat 02:46:57 PM 36.8864 -112.4339 70° East 396 456 37,000  Level Los Angeles Center
Sat 02:47:59 PM 36.9294 -112.2803 71° East 393 452 37,000  Level Los Angeles Center
Sat 02:49:01 PM 36.9658 -112.1519 70° East 394 453 37,000  Level Los Angeles Center
Sat 02:50:03 PM 37.0014 -112.0225 71° East 395 455 37,000  Level Los Angeles Center
Sat 02:50:32 PM 37.0103 -111.9953 68° East 398 458 37,000  Level Denver Center
Sat 02:51:34 PM 37.0608 -111.8128 71° East 398 458 37,000  Level Denver Center
Sat 02:52:35 PM 37.0967 -111.6833 71° East 397 457 37,000  Level Denver Center
Sat 02:53:37 PM 37.1311 -111.5831 67° East 393 452 37,000  Level Denver Center
Sat 02:54:38 PM 37.1847 -111.4364 65° Northeast 389 448 37,000  Level Denver Center
Sat 02:55:40 PM 37.2317 -111.3117 65° Northeast 395 455 37,000  Level Denver Center
Sat 02:56:42 PM 37.2783 -111.1867 65° Northeast 398 458 37,000  Level Denver Center
Sat 02:57:43 PM 37.3253 -111.0594 65° Northeast 402 463 37,000  Level Denver Center
Sat 02:58:45 PM 37.3814 -110.9064 65° Northeast 404 465 37,000  Level Denver Center
Sat 02:59:46 PM 37.4289 -110.7792 65° Northeast 403 464 37,000  Level Denver Center
Sat 03:00:48 PM 37.4761 -110.6511 65° Northeast 405 466 37,000  Level Denver Center
Sat 03:01:49 PM 37.5236 -110.5181 66° East 408 470 37,000  Level Denver Center
Sat 03:02:51 PM 37.5683 -110.3936 66° East 407 468 37,000  Level Denver Center
Sat 03:03:53 PM 37.6217 -110.2483 65° Northeast 409 471 37,000  Level Denver Center
Sat 03:04:54 PM 37.6658 -110.1222 66° East 410 472 37,000  Level Denver Center
Sat 03:05:55 PM 37.7033 -110.0186 65° Northeast 407 468 37,000  Level Denver Center
Sat 03:06:57 PM 37.7631 -109.8500 66° East 410 472 37,000  Level Denver Center
Sat 03:07:59 PM 37.8086 -109.7219 66° East 414 476 37,000  Level Denver Center
Sat 03:09:01 PM 37.8603 -109.5744 66° East 412 474 37,000  Level Denver Center
Sat 03:10:02 PM 37.9056 -109.4472 66° East 414 476 37,000  Level Denver Center
Sat 03:11:04 PM 37.9572 -109.2975 66° East 414 476 37,000  Level Denver Center
Sat 03:12:06 PM 38.0014 -109.1708 66° East 413 475 37,000  Level Denver Center
Sat 03:13:07 PM 38.0544 -109.0211 66° East 415 478 37,000  Level Denver Center
Sat 03:14:09 PM 38.0983 -108.8914 67° East 419 482 37,000  Level Denver Center
Sat 03:15:11 PM 38.1419 -108.7642 66° East 414 476 37,000  Level Denver Center
Sat 03:16:12 PM 38.1933 -108.6139 66° East 415 478 37,000  Level Denver Center
Sat 03:17:14 PM 38.2367 -108.4836 67° East 418 481 37,000  Level Denver Center
Sat 03:18:15 PM 38.2733 -108.3769 66° East 415 478 37,000  Level Denver Center
Sat 03:19:17 PM 38.3317 -108.2069 66° East 411 473 37,000  Level Denver Center
Sat 03:20:19 PM 38.3811 -108.0572 67° East 410 472 37,000  Level Denver Center
Sat 03:21:21 PM 38.4233 -107.9289 67° East 411 473 37,000  Level Denver Center
Sat 03:22:22 PM 38.4594 -107.8222 67° East 411 473 37,000 -341 Level Denver Center
Sat 03:23:24 PM 38.5158 -107.6514 67° East 410 472 36,300 -823 Descending Denver Center
Sat 03:24:26 PM 38.5561 -107.5281 67° East 399 459 35,300 -976 Descending Denver Center
Sat 03:25:27 PM 38.6036 -107.3819 67° East 398 458 34,300 -927 Descending Denver Center
Sat 03:26:29 PM 38.6456 -107.2550 67° East 402 463 33,400 -878 Descending Denver Center
Sat 03:27:30 PM 38.6875 -107.1253 67° East 415 478 32,500 -878 Descending Denver Center
Sat 03:28:32 PM 38.7325 -106.9883 67° East 417 480 31,600 -968 Descending Denver Center
Sat 03:29:34 PM 38.7858 -106.8189 68° East 427 491 30,500 -1,024 Descending Denver Center
Sat 03:30:35 PM 38.8314 -106.6769 68° East 431 496 29,500 -976 Descending Denver Center
Sat 03:31:37 PM 38.8753 -106.5358 68° East 429 494 28,500 -976 Descending Denver Center
Sat 03:32:38 PM 38.9250 -106.3822 67° East 431 496 27,500 -732 Descending Denver Center
Sat 03:33:40 PM 38.9600 -106.2697 68° East 429 494 27,000 -353 Descending Denver Center
Sat 03:34:54 PM 39.0083 -106.1136 68° East 423 487 26,700 -750 Descending Denver Center
Sat 03:35:56 PM 39.0672 -105.9247 68° East 408 470 25,300 -1,171 Descending Denver Center
Sat 03:36:57 PM 39.1017 -105.8161 68° East 375 432 24,300 -1,024 Descending Denver Center
Sat 03:37:59 PM 39.1392 -105.6914 69° East 341 392 23,200 -927 Descending Denver Center
Sat 03:39:00 PM 39.1769 -105.5686 68° East 366 421 22,400 -976 Descending Denver Center
Sat 03:40:02 PM 39.2183 -105.4319 69° East 380 437 21,200 -1,065 Descending Denver Center
Sat 03:41:04 PM 39.2544 -105.3197 67° East 337 388 20,200 -1,024 Descending Denver Center
Sat 03:42:05 PM 39.3281 -105.2372 41° Northeast 327 376 19,100 -976 Descending Denver Center
Sat 03:43:07 PM 39.3994 -105.1639 38° Northeast 328 377 18,200 -1,024 Descending Denver Center
Sat 03:44:08 PM 39.4728 -105.0961 35° Northeast 326 375 17,000 -585 Descending Denver Center
Sat 03:45:10 PM 39.5450 -105.0236 38° Northeast 306 352 17,000 -677 Level Denver Center
Sat 03:46:12 PM 39.6111 -104.9581 37° Northeast 300 345 15,600 -1,366 Descending Denver Center
Sat 03:47:13 PM 39.6733 -104.8967 37° Northeast 284 327 14,200 -1,268 Descending Denver Center
Sat 03:48:15 PM 39.7408 -104.8414 32° Northeast 266 306 13,000 -1,073 Descending Denver Center
Sat 03:49:16 PM 39.8083 -104.8411 360° North 243 280 12,000 -585 Descending Denver Center
Sat 03:50:18 PM 39.8739 -104.8400 North 235 270 11,800 -484 Descending Denver Center
Sat 03:51:20 PM 39.9417 -104.8386 North 241 277 11,000 -1,122 Descending Denver Center
Sat 03:52:21 PM 40.0144 -104.8406 359° North 242 278 9,500 -976 Descending Denver Center
Sat 03:53:23 PM 40.0817 -104.8386 North 242 278 9,000 -244 Descending Denver Center
Sat 03:54:24 PM 40.1314 -104.8039 28° Northeast 221 254 9,000 -488 Level Denver Center
Sat 03:55:26 PM 40.1017 -104.7344 119° Southeast 223 257 8,000 -484 Descending Denver Center
Sat 03:56:28 PM 40.0511 -104.7033 155° Southeast 202 232 8,000 -390 Level Denver Center
Sat 03:57:29 PM 39.9958 -104.6950 173° South 208 239 7,200 -829 Descending Denver Center
Sat 03:58:31 PM 39.9461 -104.6956 180° South 173 199 6,300 -774 Descending Denver Center
Sat 03:59:33 PM 39.9042 -104.6958 180° South 154 177 5,600 -677 Descending Denver Center
Sat 04:01:00 PM 39.8617 -104.6732 159° South  Level Estimated
Sat 04:08:00 PM 39.8617 -104.6732 159° South  Level Estimated
Sat 04:09:00 PM 39.8617 -104.6732 159° South  Level Estimated
Sat 04:10:00 PM 39.8617 -104.6732 159° South  Level Estimated

Login

Don't have an account? Register now (free) for customized features, flight alerts, and more!